createdAt,value
2023-04-08T00:01:59.847Z,19.87
2023-04-08T00:04:27.318Z,16.77
2023-04-08T00:06:54.975Z,17.23
2023-04-08T00:09:22.375Z,17.77
2023-04-08T00:11:49.656Z,18.30
2023-04-08T00:14:16.990Z,19.43
2023-04-08T00:16:44.381Z,20.70
2023-04-08T00:19:12.378Z,18.77
2023-04-08T00:21:39.873Z,18.87
2023-04-08T00:24:07.760Z,19.97
2023-04-08T00:26:53.393Z,20.93
2023-04-08T00:29:20.981Z,23.00
2023-04-08T00:31:48.732Z,21.93
2023-04-08T00:34:16.380Z,22.20
2023-04-08T00:36:43.591Z,23.20
2023-04-08T00:39:11.253Z,23.80
2023-04-08T00:41:38.445Z,23.83
2023-04-08T00:44:05.969Z,23.57
2023-04-08T00:46:36.644Z,23.97
2023-04-08T00:49:04.035Z,26.33
2023-04-08T00:51:32.205Z,27.20
2023-04-08T00:54:00.744Z,24.90
2023-04-08T00:56:27.994Z,24.80
2023-04-08T00:58:56.069Z,28.07
2023-04-08T01:01:35.719Z,27.07
2023-04-08T01:04:08.208Z,30.00
2023-04-08T01:06:49.415Z,26.93
2023-04-08T01:09:19.266Z,28.53
2023-04-08T01:11:47.288Z,27.10
2023-04-08T01:14:17.074Z,28.17
2023-04-08T01:16:45.120Z,29.70
2023-04-08T01:19:18.240Z,27.53
2023-04-08T01:21:46.410Z,26.57
2023-04-08T01:24:18.986Z,26.97
2023-04-08T01:26:46.310Z,28.10
2023-04-08T01:29:13.614Z,27.63
2023-04-08T01:31:41.926Z,24.30
2023-04-08T01:34:09.643Z,25.10
2023-04-08T01:36:38.414Z,26.40
2023-04-08T01:39:06.712Z,24.33
2023-04-08T01:41:36.780Z,21.63
2023-04-08T01:44:05.262Z,24.23
2023-04-08T01:46:33.277Z,24.60
2023-04-08T01:49:00.983Z,23.20
2023-04-08T01:51:28.946Z,24.30
2023-04-08T01:53:57.328Z,24.10
2023-04-08T01:56:26.420Z,24.50
2023-04-08T01:58:54.878Z,24.23
2023-04-08T02:01:23.494Z,25.17
2023-04-08T02:03:52.301Z,23.53
2023-04-08T02:06:19.734Z,21.83
2023-04-08T02:08:47.155Z,22.33
2023-04-08T02:11:14.482Z,22.17
2023-04-08T02:13:42.089Z,20.50
2023-04-08T02:16:29.687Z,19.70
2023-04-08T02:18:59.096Z,20.90
2023-04-08T02:21:34.547Z,18.53
2023-04-08T02:24:06.308Z,19.20
2023-04-08T02:26:34.693Z,18.73
2023-04-08T02:29:02.327Z,20.07
2023-04-08T02:31:29.706Z,16.67
2023-04-08T02:33:57.100Z,19.73
2023-04-08T02:36:24.525Z,17.07
2023-04-08T02:38:52.046Z,18.93
2023-04-08T02:41:19.548Z,17.63
2023-04-08T02:43:48.021Z,16.60
2023-04-08T02:46:15.743Z,16.63
2023-04-08T02:48:43.150Z,16.20
2023-04-08T02:51:10.529Z,16.90
2023-04-08T02:53:37.792Z,17.23
2023-04-08T02:56:05.567Z,14.17
2023-04-08T02:58:33.758Z,13.70
2023-04-08T03:01:01.107Z,16.17
2023-04-08T03:03:29.873Z,16.13
2023-04-08T03:05:57.785Z,17.13
2023-04-08T03:08:25.042Z,12.23
2023-04-08T03:10:52.301Z,15.80
2023-04-08T03:13:19.507Z,13.53
2023-04-08T03:15:46.807Z,14.27
2023-04-08T03:18:14.105Z,14.37
2023-04-08T03:20:41.707Z,12.93
2023-04-08T03:23:08.965Z,13.07
2023-04-08T03:25:36.177Z,13.23
2023-04-08T03:28:03.373Z,14.13
2023-04-08T03:30:30.913Z,13.20
2023-04-08T03:32:58.195Z,13.97
2023-04-08T03:35:25.776Z,12.70
2023-04-08T03:37:55.025Z,13.20
2023-04-08T03:40:22.256Z,14.00
2023-04-08T03:42:49.522Z,14.30
2023-04-08T03:45:16.788Z,13.97
2023-04-08T03:47:43.964Z,13.07
2023-04-08T03:50:11.434Z,13.07
2023-04-08T03:52:38.641Z,12.77
2023-04-08T03:55:06.128Z,12.63
2023-04-08T03:57:33.762Z,10.33
2023-04-08T04:00:01.418Z,12.53
2023-04-08T04:02:29.732Z,10.10
2023-04-08T04:04:57.467Z,10.53
2023-04-08T04:07:24.759Z,13.03
2023-04-08T04:09:54.211Z,10.30
2023-04-08T04:12:21.581Z,11.37
2023-04-08T04:14:48.838Z,10.17
2023-04-08T04:17:16.284Z,9.93
2023-04-08T04:19:43.514Z,9.87
2023-04-08T04:22:10.844Z,8.40
2023-04-08T04:24:38.067Z,12.43
2023-04-08T04:27:05.308Z,9.93
2023-04-08T04:29:32.729Z,11.10
2023-04-08T04:31:59.963Z,10.80
2023-04-08T04:34:27.410Z,9.50
2023-04-08T04:36:54.717Z,11.77
2023-04-08T04:39:22.104Z,9.97
2023-04-08T04:41:49.513Z,13.03
2023-04-08T04:44:16.819Z,10.03
2023-04-08T04:46:44.065Z,9.57
2023-04-08T04:49:11.311Z,11.80
2023-04-08T04:51:38.597Z,12.77
2023-04-08T04:54:06.093Z,10.80
2023-04-08T04:56:33.390Z,12.87
2023-04-08T04:59:00.743Z,10.83
2023-04-08T05:01:29.107Z,14.43
2023-04-08T05:03:56.380Z,13.10
2023-04-08T05:06:24.366Z,10.57
2023-04-08T05:08:52.015Z,10.70
2023-04-08T05:11:19.693Z,12.00
2023-04-08T05:13:47.451Z,10.33
2023-04-08T05:16:14.798Z,11.07
2023-04-08T05:18:42.212Z,11.90
2023-04-08T05:21:09.421Z,10.47
2023-04-08T05:23:36.725Z,11.73
2023-04-08T05:26:03.998Z,11.53
2023-04-08T05:28:31.442Z,10.73
2023-04-08T05:30:58.661Z,10.63
2023-04-08T05:33:26.626Z,10.17
2023-04-08T05:35:53.883Z,11.70
2023-04-08T05:38:21.201Z,9.67
2023-04-08T05:40:48.426Z,9.20
2023-04-08T05:43:15.727Z,10.97
2023-04-08T05:45:43.393Z,9.93
2023-04-08T05:48:10.660Z,11.37
2023-04-08T05:50:38.104Z,10.67
2023-04-08T05:53:05.456Z,10.00
2023-04-08T05:55:32.653Z,10.87
2023-04-08T05:57:59.960Z,9.10
2023-04-08T06:00:27.174Z,10.73
2023-04-08T06:02:54.775Z,12.70
2023-04-08T06:05:22.052Z,10.27
2023-04-08T06:07:49.291Z,11.60
2023-04-08T06:10:16.650Z,12.67
2023-04-08T06:12:43.880Z,11.30
2023-04-08T06:15:11.154Z,11.00
2023-04-08T06:17:38.545Z,11.83
2023-04-08T06:20:06.844Z,14.17
2023-04-08T06:22:34.081Z,12.50
2023-04-08T06:25:01.520Z,10.30
2023-04-08T06:27:28.808Z,10.73
2023-04-08T06:29:56.118Z,11.97
2023-04-08T06:32:23.833Z,17.90
2023-04-08T06:34:51.376Z,40.47
2023-04-08T06:37:18.563Z,22.57
2023-04-08T06:39:45.924Z,14.87
2023-04-08T06:42:13.150Z,12.53
2023-04-08T06:44:54.682Z,12.17
2023-04-08T06:47:21.963Z,11.83
2023-04-08T06:49:49.449Z,12.43
2023-04-08T06:52:17.210Z,12.80
2023-04-08T06:54:44.476Z,11.90
2023-04-08T06:57:11.746Z,14.23
2023-04-08T06:59:38.986Z,13.00
2023-04-08T07:02:06.879Z,14.63
2023-04-08T07:04:34.225Z,15.00
2023-04-08T07:07:01.510Z,15.80
2023-04-08T07:09:28.855Z,15.73
2023-04-08T07:11:57.605Z,18.00
2023-04-08T07:14:24.865Z,15.47
2023-04-08T07:16:52.185Z,16.53
2023-04-08T07:19:19.436Z,17.23
2023-04-08T07:21:46.934Z,17.80
2023-04-08T07:24:14.320Z,17.03
2023-04-08T07:26:41.692Z,20.07
2023-04-08T07:29:08.933Z,18.07
2023-04-08T07:31:36.332Z,17.37
2023-04-08T07:34:03.594Z,17.77
2023-04-08T07:36:30.933Z,18.40
2023-04-08T07:38:58.186Z,17.57
2023-04-08T07:41:25.462Z,55.87
2023-04-08T07:43:53.217Z,18.00
2023-04-08T07:46:21.283Z,18.07
2023-04-08T07:48:48.941Z,13.00
2023-04-08T07:51:16.425Z,15.70
2023-04-08T07:53:48.381Z,11.47
2023-04-08T07:56:18.166Z,11.83
2023-04-08T07:58:45.570Z,13.00
2023-04-08T08:01:20.232Z,13.13
2023-04-08T08:03:48.025Z,16.30
2023-04-08T08:06:15.782Z,11.97
2023-04-08T08:08:43.492Z,12.53
2023-04-08T08:11:10.776Z,11.13
2023-04-08T08:13:38.039Z,11.23
2023-04-08T08:16:09.150Z,10.93
2023-04-08T08:18:37.240Z,9.87
2023-04-08T08:21:04.875Z,13.13
2023-04-08T08:23:32.452Z,13.00
2023-04-08T08:26:01.135Z,12.97
2023-04-08T08:28:28.804Z,11.33
2023-04-08T08:30:56.774Z,9.03
2023-04-08T08:33:24.051Z,9.53
2023-04-08T08:35:51.804Z,10.23
2023-04-08T08:38:19.756Z,10.17
2023-04-08T08:40:47.388Z,9.33
2023-04-08T08:43:14.802Z,8.93
2023-04-08T08:45:45.131Z,10.17
2023-04-08T08:48:12.499Z,9.20
2023-04-08T08:50:39.677Z,9.67
2023-04-08T08:53:07.165Z,8.90
2023-04-08T08:55:59.537Z,8.87
2023-04-08T08:58:22.317Z,8.87
2023-04-08T09:00:49.554Z,8.40
2023-04-08T09:03:24.901Z,10.13
2023-04-08T09:06:12.650Z,8.47
2023-04-08T09:08:40.057Z,11.67
2023-04-08T09:11:15.020Z,11.00
2023-04-08T09:13:42.874Z,9.37
2023-04-08T09:16:11.211Z,11.23
2023-04-08T09:18:39.344Z,11.20
2023-04-08T09:21:07.264Z,10.50
2023-04-08T09:23:43.816Z,11.50
2023-04-08T09:26:12.300Z,11.77
2023-04-08T09:28:40.276Z,11.70
2023-04-08T09:31:26.310Z,10.83
2023-04-08T09:33:54.747Z,11.20
2023-04-08T09:36:22.140Z,11.40
2023-04-08T09:38:49.658Z,10.93
2023-04-08T09:41:17.799Z,10.77
2023-04-08T09:43:49.619Z,10.77
2023-04-08T09:46:18.454Z,10.57
2023-04-08T09:49:04.676Z,9.57
2023-04-08T09:51:34.742Z,11.23
2023-04-08T09:54:03.421Z,12.73
2023-04-08T09:56:36.175Z,10.27
2023-04-08T09:59:12.279Z,11.67
2023-04-08T10:01:40.977Z,12.67
2023-04-08T10:04:16.118Z,12.53
2023-04-08T10:06:43.789Z,12.37
2023-04-08T10:09:11.280Z,11.00
2023-04-08T10:11:53.551Z,11.43
2023-04-08T10:14:28.911Z,13.13
2023-04-08T10:17:19.832Z,13.00
2023-04-08T10:19:47.068Z,12.23
2023-04-08T10:22:29.752Z,11.70
2023-04-08T10:25:16.499Z,12.67
2023-04-08T10:27:44.358Z,11.17
2023-04-08T10:30:26.897Z,11.27
2023-04-08T10:32:59.838Z,10.10
2023-04-08T10:35:31.444Z,11.67
2023-04-08T10:37:59.747Z,10.03
2023-04-08T10:40:27.200Z,11.00
2023-04-08T10:42:58.555Z,9.53
2023-04-08T10:45:26.248Z,10.87
2023-04-08T10:47:53.616Z,8.83
2023-04-08T10:50:24.269Z,9.90
2023-04-08T10:52:53.158Z,8.97
2023-04-08T10:55:28.833Z,9.03
2023-04-08T10:57:58.164Z,10.03
2023-04-08T11:00:39.676Z,10.33
2023-04-08T11:03:08.155Z,9.30
2023-04-08T11:05:39.633Z,10.47
2023-04-08T11:08:25.599Z,10.60
2023-04-08T11:10:52.894Z,12.67
2023-04-08T11:13:21.755Z,10.90
2023-04-08T11:15:49.121Z,12.33
2023-04-08T11:18:16.621Z,11.00
2023-04-08T11:20:45.006Z,11.73
2023-04-08T11:23:15.508Z,13.13
2023-04-08T11:25:43.482Z,12.80
2023-04-08T11:28:12.056Z,14.73
2023-04-08T11:30:40.549Z,13.90
2023-04-08T11:33:08.337Z,13.63
2023-04-08T11:35:35.992Z,12.57
2023-04-08T11:38:05.545Z,16.10
2023-04-08T11:40:32.879Z,14.47
2023-04-08T11:43:00.175Z,15.23
2023-04-08T11:45:28.534Z,18.33
2023-04-08T11:47:55.869Z,15.13
2023-04-08T11:50:24.783Z,18.40
2023-04-08T11:52:52.508Z,16.73
2023-04-08T11:55:27.505Z,17.80
2023-04-08T11:57:55.641Z,19.40
2023-04-08T12:00:23.261Z,18.97
2023-04-08T12:02:51.230Z,18.43
2023-04-08T12:05:18.632Z,17.73
2023-04-08T12:07:45.993Z,19.47
2023-04-08T12:10:13.385Z,20.37
2023-04-08T12:12:41.080Z,19.77
2023-04-08T12:15:08.687Z,19.50
2023-04-08T12:17:36.407Z,21.87
2023-04-08T12:20:04.352Z,22.40
2023-04-08T12:22:31.735Z,23.03
2023-04-08T12:24:59.424Z,21.13
2023-04-08T12:27:26.609Z,19.97
2023-04-08T12:29:53.850Z,20.57
2023-04-08T12:32:21.651Z,21.10
2023-04-08T12:34:49.031Z,23.30
2023-04-08T12:37:16.305Z,22.17
2023-04-08T12:39:43.635Z,22.03
2023-04-08T12:42:11.046Z,19.80
2023-04-08T12:44:38.583Z,21.07
2023-04-08T12:47:06.082Z,22.70
2023-04-08T12:49:39.582Z,19.87
2023-04-08T12:52:15.854Z,16.27
2023-04-08T12:54:43.093Z,18.47
2023-04-08T12:57:10.573Z,18.80
2023-04-08T12:59:39.793Z,18.27
2023-04-08T13:02:07.898Z,17.17
2023-04-08T13:04:36.433Z,21.60
2023-04-08T13:07:04.500Z,19.67
2023-04-08T13:09:32.002Z,18.33
2023-04-08T13:11:59.838Z,19.47
2023-04-08T13:14:27.663Z,20.43
2023-04-08T13:16:55.347Z,18.90
2023-04-08T13:19:22.652Z,18.77
2023-04-08T13:21:49.993Z,17.60
2023-04-08T13:24:18.316Z,18.47
2023-04-08T13:26:45.858Z,17.70
2023-04-08T13:29:13.476Z,16.23
2023-04-08T13:31:40.830Z,16.37
2023-04-08T13:34:08.463Z,16.03
2023-04-08T13:36:35.958Z,13.90
2023-04-08T13:39:03.315Z,14.83
2023-04-08T13:41:30.561Z,16.53
2023-04-08T13:43:58.409Z,14.57
2023-04-08T13:46:25.782Z,16.10
2023-04-08T13:48:53.380Z,16.87
2023-04-08T13:51:20.975Z,13.60
2023-04-08T13:53:48.208Z,13.90
2023-04-08T13:56:15.481Z,15.47
2023-04-08T13:58:42.928Z,16.80
2023-04-08T14:01:11.121Z,16.43
2023-04-08T14:03:38.505Z,14.27
2023-04-08T14:06:05.778Z,15.63
2023-04-08T14:08:33.046Z,15.43
2023-04-08T14:11:00.404Z,15.50
2023-04-08T14:13:28.013Z,14.43
2023-04-08T14:15:58.208Z,19.90
2023-04-08T14:18:26.091Z,18.10
2023-04-08T14:20:53.316Z,26.27
2023-04-08T14:23:21.277Z,16.37
2023-04-08T14:25:48.467Z,22.43
2023-04-08T14:28:15.773Z,18.60
2023-04-08T14:30:43.062Z,15.03
2023-04-08T14:33:10.880Z,16.20
2023-04-08T14:35:38.221Z,13.80
2023-04-08T14:38:05.512Z,13.37
2023-04-08T14:40:32.694Z,14.40
2023-04-08T14:42:59.918Z,13.93
2023-04-08T14:45:27.148Z,14.03
2023-04-08T14:47:54.410Z,15.93
2023-04-08T14:50:22.444Z,16.57
2023-04-08T14:52:50.105Z,16.43
2023-04-08T14:55:17.868Z,15.17
2023-04-08T14:57:45.277Z,17.93
2023-04-08T15:00:12.813Z,14.93
2023-04-08T15:02:40.219Z,14.73
2023-04-08T15:05:08.485Z,14.33
2023-04-08T15:07:36.070Z,13.70
2023-04-08T15:10:03.555Z,13.70
2023-04-08T15:12:31.047Z,14.10
2023-04-08T15:14:58.388Z,13.43
2023-04-08T15:17:28.885Z,14.63
2023-04-08T15:19:56.463Z,14.87
2023-04-08T15:22:23.924Z,14.77
2023-04-08T15:24:51.334Z,15.13
2023-04-08T15:27:20.064Z,15.23
2023-04-08T15:29:47.970Z,14.57
2023-04-08T15:32:15.493Z,14.90
2023-04-08T15:34:42.888Z,15.27
2023-04-08T15:37:10.247Z,15.27
2023-04-08T15:39:37.513Z,14.87
2023-04-08T15:42:05.334Z,14.07
2023-04-08T15:44:32.753Z,15.73
2023-04-08T15:47:00.154Z,19.17
2023-04-08T15:49:27.452Z,15.97
2023-04-08T15:51:55.214Z,14.87
2023-04-08T15:54:22.489Z,16.30
2023-04-08T15:56:49.793Z,24.80
2023-04-08T15:59:17.073Z,21.07
2023-04-08T16:01:44.465Z,18.67
2023-04-08T16:04:12.085Z,17.67
2023-04-08T16:06:39.396Z,16.47
2023-04-08T16:09:06.878Z,16.73
2023-04-08T16:11:34.832Z,17.97
2023-04-08T16:14:02.521Z,17.77
2023-04-08T16:16:30.404Z,19.77
2023-04-08T16:18:57.656Z,17.57
2023-04-08T16:21:25.329Z,18.37
2023-04-08T16:23:53.009Z,17.73
2023-04-08T16:26:22.005Z,16.33
2023-04-08T16:28:49.809Z,17.57
2023-04-08T16:31:18.707Z,18.83
2023-04-08T16:33:47.464Z,17.33
2023-04-08T16:36:15.040Z,16.70
2023-04-08T16:38:42.694Z,16.80
2023-04-08T16:41:10.104Z,16.80
2023-04-08T16:43:37.914Z,18.13
2023-04-08T16:46:12.735Z,17.53
2023-04-08T16:48:42.281Z,18.33
2023-04-08T16:51:09.598Z,16.60
2023-04-08T16:53:38.136Z,16.60
2023-04-08T16:56:05.843Z,16.97
2023-04-08T16:58:33.139Z,16.60
2023-04-08T17:01:00.481Z,17.67
2023-04-08T17:03:28.118Z,18.43
2023-04-08T17:05:56.086Z,15.60
2023-04-08T17:08:23.778Z,17.37
2023-04-08T17:10:51.128Z,16.77
2023-04-08T17:13:18.451Z,17.47
2023-04-08T17:15:45.690Z,16.43
2023-04-08T17:18:31.643Z,20.00
2023-04-08T17:20:59.132Z,18.53
2023-04-08T17:23:27.078Z,18.70
2023-04-08T17:25:54.583Z,31.57
2023-04-08T17:28:22.225Z,23.23
2023-04-08T17:30:50.168Z,20.60
2023-04-08T17:33:17.499Z,19.30
2023-04-08T17:35:44.789Z,19.20
2023-04-08T17:38:12.070Z,18.10
2023-04-08T17:40:39.683Z,18.20
2023-04-08T17:43:07.092Z,16.63
2023-04-08T17:45:34.334Z,18.53
2023-04-08T17:48:05.219Z,19.00
2023-04-08T17:50:33.880Z,21.40
2023-04-08T17:53:01.164Z,20.50
2023-04-08T17:55:28.526Z,17.33
2023-04-08T17:57:56.332Z,20.53
2023-04-08T18:00:23.680Z,18.50
2023-04-08T18:02:51.719Z,19.57
2023-04-08T18:05:19.224Z,18.77
2023-04-08T18:07:46.552Z,22.87
2023-04-08T18:10:14.132Z,19.87
2023-04-08T18:12:41.430Z,19.03
2023-04-08T18:15:08.955Z,20.97
2023-04-08T18:17:36.204Z,17.83
2023-04-08T18:20:03.466Z,19.00
2023-04-08T18:22:31.076Z,19.10
2023-04-08T18:24:58.410Z,19.60
2023-04-08T18:27:25.623Z,19.07
2023-04-08T18:29:53.562Z,18.50
2023-04-08T18:32:20.920Z,18.50
2023-04-08T18:34:48.273Z,17.80
2023-04-08T18:37:16.951Z,19.43
2023-04-08T18:39:44.181Z,18.97
2023-04-08T18:42:11.682Z,17.73
2023-04-08T18:44:38.927Z,19.70
2023-04-08T18:47:07.319Z,20.63
2023-04-08T18:49:35.163Z,19.07
2023-04-08T18:52:03.615Z,17.40
2023-04-08T18:54:31.011Z,18.00
2023-04-08T18:56:58.464Z,20.23
2023-04-08T18:59:28.368Z,18.43
2023-04-08T19:01:56.033Z,20.90
2023-04-08T19:04:23.641Z,20.00
2023-04-08T19:06:51.467Z,21.30
2023-04-08T19:09:19.172Z,19.17
2023-04-08T19:11:48.301Z,19.27
2023-04-08T19:14:15.962Z,20.60
2023-04-08T19:16:43.537Z,19.00
2023-04-08T19:19:11.022Z,21.83
2023-04-08T19:21:38.537Z,21.80
2023-04-08T19:24:06.469Z,18.17
2023-04-08T19:26:34.169Z,20.70
2023-04-08T19:29:01.908Z,18.77
2023-04-08T19:31:29.264Z,20.47
2023-04-08T19:33:56.648Z,20.97
2023-04-08T19:36:23.891Z,20.90
2023-04-08T19:38:51.371Z,21.03
2023-04-08T19:41:18.714Z,19.87
2023-04-08T19:43:47.040Z,20.40
2023-04-08T19:46:14.459Z,23.80
2023-04-08T19:48:42.188Z,23.17
2023-04-08T19:51:12.883Z,23.90
2023-04-08T19:53:40.323Z,23.57
2023-04-08T19:56:07.638Z,20.53
2023-04-08T19:58:37.958Z,105.53
2023-04-08T20:01:07.311Z,40.47
2023-04-08T20:03:34.780Z,35.83
2023-04-08T20:06:02.223Z,24.17
2023-04-08T20:08:29.786Z,24.00
2023-04-08T20:10:57.051Z,22.77
2023-04-08T20:13:24.314Z,22.47
2023-04-08T20:15:52.461Z,24.57
2023-04-08T20:18:19.868Z,24.77
2023-04-08T20:20:49.082Z,24.80
2023-04-08T20:23:19.384Z,22.77
2023-04-08T20:25:46.817Z,22.37
2023-04-08T20:28:14.097Z,25.27
2023-04-08T20:30:41.450Z,22.87
2023-04-08T20:33:08.645Z,23.73
2023-04-08T20:35:35.965Z,24.90
2023-04-08T20:38:03.588Z,26.53
2023-04-08T20:40:30.879Z,24.83
2023-04-08T20:42:58.363Z,25.93
2023-04-08T20:45:25.886Z,27.30
2023-04-08T20:47:54.340Z,24.63
2023-04-08T20:50:21.911Z,25.50
2023-04-08T20:52:49.402Z,26.27
2023-04-08T20:55:16.638Z,25.60
2023-04-08T20:57:44.343Z,27.33
2023-04-08T21:00:13.640Z,26.90
2023-04-08T21:02:41.294Z,26.10
2023-04-08T21:05:09.127Z,32.70
2023-04-08T21:07:38.476Z,30.73
2023-04-08T21:10:06.837Z,28.17
2023-04-08T21:12:34.047Z,27.70
2023-04-08T21:15:01.470Z,29.30
2023-04-08T21:17:31.164Z,30.43
2023-04-08T21:19:58.596Z,32.40
2023-04-08T21:22:25.916Z,32.13
2023-04-08T21:24:53.325Z,33.60
2023-04-08T21:27:21.075Z,34.47
2023-04-08T21:29:51.411Z,30.97
2023-04-08T21:32:19.375Z,29.47
2023-04-08T21:34:47.154Z,34.43
2023-04-08T21:37:14.435Z,34.47
2023-04-08T21:39:41.673Z,34.60
2023-04-08T21:42:09.405Z,35.77
2023-04-08T21:44:36.865Z,30.80
2023-04-08T21:47:04.267Z,33.30
2023-04-08T21:49:31.599Z,33.50
2023-04-08T21:51:59.204Z,35.83
2023-04-08T21:54:26.395Z,36.13
2023-04-08T21:56:54.234Z,32.33
2023-04-08T21:59:22.249Z,36.40
2023-04-08T22:01:49.683Z,32.03
2023-04-08T22:04:17.087Z,35.17
2023-04-08T22:06:44.677Z,33.43
2023-04-08T22:11:57.143Z,36.03
2023-04-08T22:14:24.410Z,35.30
2023-04-08T22:16:51.651Z,34.23
2023-04-08T22:19:19.168Z,38.10
2023-04-08T22:21:46.514Z,36.13
2023-04-08T22:24:13.926Z,36.37
2023-04-08T22:26:41.298Z,34.83
2023-04-08T22:29:08.759Z,36.63
2023-04-08T22:31:35.986Z,38.13
2023-04-08T22:34:03.505Z,37.50
2023-04-08T22:36:31.432Z,38.50
2023-04-08T22:38:58.661Z,38.17
2023-04-08T22:41:26.506Z,37.30
2023-04-08T22:43:53.805Z,37.63
2023-04-08T22:46:21.317Z,36.47
2023-04-08T22:48:49.543Z,34.10
2023-04-08T22:51:17.113Z,37.83
2023-04-08T22:53:44.370Z,37.50
2023-04-08T22:56:11.707Z,40.93
2023-04-08T22:58:38.983Z,36.40
2023-04-08T23:01:13.959Z,37.03
2023-04-08T23:03:41.763Z,37.43
2023-04-08T23:06:09.225Z,34.70
2023-04-08T23:08:36.476Z,35.87
2023-04-08T23:11:03.767Z,38.93
2023-04-08T23:13:31.048Z,36.30
2023-04-08T23:15:58.830Z,35.93
2023-04-08T23:18:26.354Z,37.07
2023-04-08T23:20:54.599Z,34.07
2023-04-08T23:23:24.127Z,35.87
2023-04-08T23:25:53.370Z,34.50
2023-04-08T23:28:22.226Z,37.13
2023-04-08T23:30:49.806Z,36.67
2023-04-08T23:33:17.024Z,36.63
2023-04-08T23:35:44.353Z,35.90
2023-04-08T23:38:11.605Z,38.73
2023-04-08T23:40:38.938Z,38.30
2023-04-08T23:43:06.154Z,36.07
2023-04-08T23:45:33.392Z,37.37
2023-04-08T23:48:00.807Z,41.17
2023-04-08T23:50:28.126Z,38.60
2023-04-08T23:52:55.351Z,38.13
2023-04-08T23:55:22.593Z,40.63
2023-04-08T23:57:50.746Z,40.30
